sensor_id;sensor_type;location;lat;lon;timestamp;pressure;altitude;pressure_sealevel;temperature;humidity
39295;BME280;52361;52.100;5.248;2023-11-25T01:45:11;101270.0;;;5.76;100.0
39295;BME280;52361;52.100;5.248;2023-11-25T01:46:48;101268.0;;;5.65;100.0
39295;BME280;52361;52.100;5.248;2023-11-25T01:48:25;101270.0;;;5.55;100.0
39295;BME280;52361;52.100;5.248;2023-11-25T01:53:18;101271.0;;;5.6;100.0
39295;BME280;52361;52.100;5.248;2023-11-25T01:59:47;101261.0;;;5.57;100.0
39295;BME280;52361;52.100;5.248;2023-11-25T02:06:14;101263.0;;;5.71;100.0
39295;BME280;52361;52.100;5.248;2023-11-25T02:09:27;101262.0;;;5.85;100.0
39295;BME280;52361;52.100;5.248;2023-11-25T02:15:51;101255.0;;;5.8;100.0
39295;BME280;52361;52.100;5.248;2023-11-25T02:19:03;101255.0;;;5.86;100.0
39295;BME280;52361;52.100;5.248;2023-11-25T02:20:39;101255.0;;;5.79;100.0
39295;BME280;52361;52.100;5.248;2023-11-25T02:22:15;101255.0;;;5.69;100.0
39295;BME280;52361;52.100;5.248;2023-11-25T02:27:04;101261.0;;;5.55;100.0
39295;BME280;52361;52.100;5.248;2023-11-25T02:28:41;101262.0;;;5.51;100.0
39295;BME280;52361;52.100;5.248;2023-11-25T02:33:32;101262.0;;;5.43;100.0
39295;BME280;52361;52.100;5.248;2023-11-25T02:36:44;101255.0;;;5.5;100.0
39295;BME280;52361;52.100;5.248;2023-11-25T02:39:56;101250.0;;;5.59;100.0
39295;BME280;52361;52.100;5.248;2023-11-25T02:41:33;101239.0;;;5.73;100.0
39295;BME280;52361;52.100;5.248;2023-11-25T02:47:58;101240.0;;;5.96;100.0
39295;BME280;52361;52.100;5.248;2023-11-25T02:49:34;101236.0;;;5.95;100.0
39295;BME280;52361;52.100;5.248;2023-11-25T02:51:10;101234.0;;;5.94;100.0
39295;BME280;52361;52.100;5.248;2023-11-25T02:54:22;101233.0;;;5.92;100.0
39295;BME280;52361;52.100;5.248;2023-11-25T02:55:58;101235.0;;;5.78;100.0
39295;BME280;52361;52.100;5.248;2023-11-25T03:00:46;101233.0;;;5.74;100.0
39295;BME280;52361;52.100;5.248;2023-11-25T03:03:59;101247.0;;;5.59;100.0
39295;BME280;52361;52.100;5.248;2023-11-25T03:07:12;101249.0;;;5.51;100.0
39295;BME280;52361;52.100;5.248;2023-11-25T03:08:48;101246.0;;;5.52;100.0
39295;BME280;52361;52.100;5.248;2023-11-25T03:10:24;101248.0;;;5.42;100.0
39295;BME280;52361;52.100;5.248;2023-11-25T03:12:00;101242.0;;;5.42;100.0
39295;BME280;52361;52.100;5.248;2023-11-25T03:16:52;101241.0;;;5.29;100.0
39295;BME280;52361;52.100;5.248;2023-11-25T03:18:27;101234.0;;;5.27;100.0
39295;BME280;52361;52.100;5.248;2023-11-25T03:23:17;101236.0;;;5.18;100.0
39295;BME280;52361;52.100;5.248;2023-11-25T03:24:53;101235.0;;;5.12;100.0
39295;BME280;52361;52.100;5.248;2023-11-25T03:28:05;101233.0;;;5.11;100.0
39295;BME280;52361;52.100;5.248;2023-11-25T03:29:41;101235.0;;;5.14;100.0
39295;BME280;52361;52.100;5.248;2023-11-25T03:32:53;101239.0;;;5.12;100.0
39295;BME280;52361;52.100;5.248;2023-11-25T03:39:19;101232.0;;;5.47;100.0
39295;BME280;52361;52.100;5.248;2023-11-25T03:44:08;101233.0;;;5.51;100.0
39295;BME280;52361;52.100;5.248;2023-11-25T03:45:44;101231.0;;;5.54;100.0
39295;BME280;52361;52.100;5.248;2023-11-25T03:48:56;101238.0;;;5.56;100.0
39295;BME280;52361;52.100;5.248;2023-11-25T04:00:10;101233.0;;;6.19;100.0
39295;BME280;52361;52.100;5.248;2023-11-25T04:04:58;101246.0;;;6.29;100.0
39295;BME280;52361;52.100;5.248;2023-11-25T04:06:34;101252.0;;;6.4;100.0
39295;BME280;52361;52.100;5.248;2023-11-25T04:19:24;101250.0;;;6.81;100.0
39295;BME280;52361;52.100;5.248;2023-11-25T04:21:00;101253.0;;;6.74;100.0
39295;BME280;52361;52.100;5.248;2023-11-25T04:24:12;101253.0;;;6.77;100.0
39295;BME280;52361;52.100;5.248;2023-11-25T04:25:48;101249.0;;;6.82;100.0
39295;BME280;52361;52.100;5.248;2023-11-25T04:27:25;101258.0;;;6.88;100.0
39295;BME280;52361;52.100;5.248;2023-11-25T04:30:38;101257.0;;;6.75;100.0
39295;BME280;52361;52.100;5.248;2023-11-25T04:33:50;101246.0;;;6.9;100.0
39295;BME280;52361;52.100;5.248;2023-11-25T04:37:02;101249.0;;;7.08;100.0
39295;BME280;52361;52.100;5.248;2023-11-25T04:38:38;101248.0;;;7.05;100.0
39295;BME280;52361;52.100;5.248;2023-11-25T04:40:14;101247.0;;;7.08;100.0
39295;BME280;52361;52.100;5.248;2023-11-25T04:45:03;101249.0;;;6.99;100.0
39295;BME280;52361;52.100;5.248;2023-11-25T04:46:39;101267.0;;;6.78;100.0
39295;BME280;52361;52.100;5.248;2023-11-25T04:48:15;101275.0;;;6.81;100.0
39295;BME280;52361;52.100;5.248;2023-11-25T04:53:03;101261.0;;;7.03;100.0
39295;BME280;52361;52.100;5.248;2023-11-25T04:54:40;101265.0;;;6.76;100.0
39295;BME280;52361;52.100;5.248;2023-11-25T04:57:52;101252.0;;;6.8;100.0
39295;BME280;52361;52.100;5.248;2023-11-25T05:07:31;101209.0;;;6.87;100.0
39295;BME280;52361;52.100;5.248;2023-11-25T05:09:06;101216.0;;;6.72;100.0
39295;BME280;52361;52.100;5.248;2023-11-25T05:13:55;101250.0;;;6.73;100.0
39295;BME280;52361;52.100;5.248;2023-11-25T05:20:19;101227.0;;;6.63;100.0
39295;BME280;52361;52.100;5.248;2023-11-25T05:25:08;101215.0;;;6.64;100.0
39295;BME280;52361;52.100;5.248;2023-11-25T05:26:43;101212.0;;;6.62;100.0
39295;BME280;52361;52.100;5.248;2023-11-25T05:28:20;101206.0;;;6.53;100.0
39295;BME280;52361;52.100;5.248;2023-11-25T05:36:20;101202.0;;;6.4;100.0
39295;BME280;52361;52.100;5.248;2023-11-25T05:42:45;101218.0;;;6.38;100.0
39295;BME280;52361;52.100;5.248;2023-11-25T05:45:56;101212.0;;;6.46;100.0
39295;BME280;52361;52.100;5.248;2023-11-25T05:53:57;101163.0;;;6.43;100.0
39295;BME280;52361;52.100;5.248;2023-11-25T05:55:33;101157.0;;;6.47;100.0
39295;BME280;52361;52.100;5.248;2023-11-25T05:58:45;101164.0;;;6.54;100.0
39295;BME280;52361;52.100;5.248;2023-11-25T06:00:21;101167.0;;;6.56;100.0
39295;BME280;52361;52.100;5.248;2023-11-25T06:01:57;101170.0;;;6.49;100.0
39295;BME280;52361;52.100;5.248;2023-11-25T06:03:34;101170.0;;;6.52;100.0
39295;BME280;52361;52.100;5.248;2023-11-25T06:09:58;101178.0;;;6.3;100.0
39295;BME280;52361;52.100;5.248;2023-11-25T06:13:10;101178.0;;;6.26;100.0
39295;BME280;52361;52.100;5.248;2023-11-25T06:14:46;101174.0;;;6.28;100.0
39295;BME280;52361;52.100;5.248;2023-11-25T06:19:36;101177.0;;;6.37;100.0
39295;BME280;52361;52.100;5.248;2023-11-25T06:27:36;101190.0;;;6.29;100.0
39295;BME280;52361;52.100;5.248;2023-11-25T06:30:48;101193.0;;;6.22;100.0
39295;BME280;52361;52.100;5.248;2023-11-25T06:34:02;101189.0;;;6.19;100.0
39295;BME280;52361;52.100;5.248;2023-11-25T06:37:14;101181.0;;;6.17;100.0
39295;BME280;52361;52.100;5.248;2023-11-25T06:48:26;101172.0;;;6.06;100.0
39295;BME280;52361;52.100;5.248;2023-11-25T06:50:03;101173.0;;;6.1;100.0
39295;BME280;52361;52.100;5.248;2023-11-25T06:54:52;101173.0;;;6.21;100.0
39295;BME280;52361;52.100;5.248;2023-11-25T07:04:30;101206.0;;;6.05;100.0
39295;BME280;52361;52.100;5.248;2023-11-25T07:07:43;101212.0;;;6.14;100.0
39295;BME280;52361;52.100;5.248;2023-11-25T07:10:55;101188.0;;;6.41;100.0
39295;BME280;52361;52.100;5.248;2023-11-25T07:17:19;101155.0;;;6.34;100.0
39295;BME280;52361;52.100;5.248;2023-11-25T07:23:45;101180.0;;;6.63;100.0
39295;BME280;52361;52.100;5.248;2023-11-25T07:25:21;101184.0;;;6.59;100.0
39295;BME280;52361;52.100;5.248;2023-11-25T07:28:33;101175.0;;;6.49;100.0
39295;BME280;52361;52.100;5.248;2023-11-25T07:34:58;101168.0;;;6.38;100.0
39295;BME280;52361;52.100;5.248;2023-11-25T07:42:59;101200.0;;;6.41;100.0
39295;BME280;52361;52.100;5.248;2023-11-25T07:44:36;101197.0;;;6.5;100.0
39295;BME280;52361;52.100;5.248;2023-11-25T07:49:24;101183.0;;;6.44;100.0
39295;BME280;52361;52.100;5.248;2023-11-25T07:51:01;101177.0;;;6.54;100.0
39295;BME280;52361;52.100;5.248;2023-11-25T07:55:52;101173.0;;;6.64;100.0
39295;BME280;52361;52.100;5.248;2023-11-25T07:57:28;101175.0;;;6.78;100.0
39295;BME280;52361;52.100;5.248;2023-11-25T07:59:04;101200.0;;;6.82;100.0
39295;BME280;52361;52.100;5.248;2023-11-25T08:00:40;101200.0;;;6.66;100.0
39295;BME280;52361;52.100;5.248;2023-11-25T08:07:05;101186.0;;;6.88;100.0
39295;BME280;52361;52.100;5.248;2023-11-25T08:11:56;101180.0;;;6.91;100.0
39295;BME280;52361;52.100;5.248;2023-11-25T08:13:33;101177.0;;;6.82;100.0
39295;BME280;52361;52.100;5.248;2023-11-25T08:18:21;101176.0;;;6.9;100.0
39295;BME280;52361;52.100;5.248;2023-11-25T08:31:12;101161.0;;;6.4;100.0
39295;BME280;52361;52.100;5.248;2023-11-25T08:44:01;101199.0;;;6.89;100.0
39295;BME280;52361;52.100;5.248;2023-11-25T08:47:14;101195.0;;;7.09;100.0
39295;BME280;52361;52.100;5.248;2023-11-25T08:48:50;101201.0;;;7.19;100.0
39295;BME280;52361;52.100;5.248;2023-11-25T08:52:02;101199.0;;;7.27;100.0
39295;BME280;52361;52.100;5.248;2023-11-25T08:55:15;101200.0;;;7.29;100.0
39295;BME280;52361;52.100;5.248;2023-11-25T09:01:42;101181.0;;;7.48;100.0
39295;BME280;52361;52.100;5.248;2023-11-25T09:04:54;101187.0;;;7.61;100.0
39295;BME280;52361;52.100;5.248;2023-11-25T09:06:30;101184.0;;;7.71;100.0
39295;BME280;52361;52.100;5.248;2023-11-25T09:08:07;101178.0;;;7.83;100.0
39295;BME280;52361;52.100;5.248;2023-11-25T09:14:31;101182.0;;;8.07;100.0
39295;BME280;52361;52.100;5.248;2023-11-25T09:19:20;101172.0;;;8.14;100.0
39295;BME280;52361;52.100;5.248;2023-11-25T09:22:32;101171.0;;;8.08;100.0
39295;BME280;52361;52.100;5.248;2023-11-25T09:25:44;101181.0;;;8.11;100.0
39295;BME280;52361;52.100;5.248;2023-11-25T09:32:09;101180.0;;;8.48;100.0
39295;BME280;52361;52.100;5.248;2023-11-25T09:36:57;101186.0;;;8.41;100.0
39295;BME280;52361;52.100;5.248;2023-11-25T09:53:09;101187.0;;;8.45;100.0
39295;BME280;52361;52.100;5.248;2023-11-25T09:56:30;101193.0;;;8.72;100.0
39295;BME280;52361;52.100;5.248;2023-11-25T09:58:06;101195.0;;;8.94;100.0
39295;BME280;52361;52.100;5.248;2023-11-25T10:04:35;101180.0;;;9.31;100.0
39295;BME280;52361;52.100;5.248;2023-11-25T10:06:14;101178.0;;;9.18;100.0
39295;BME280;52361;52.100;5.248;2023-11-25T10:11:03;101181.0;;;9.35;100.0
39295;BME280;52361;52.100;5.248;2023-11-25T10:15:51;101183.0;;;9.33;100.0
39295;BME280;52361;52.100;5.248;2023-11-25T10:20:53;101182.0;;;9.48;100.0
39295;BME280;52361;52.100;5.248;2023-11-25T10:24:06;101185.0;;;9.76;100.0
39295;BME280;52361;52.100;5.248;2023-11-25T10:25:43;101177.0;;;9.52;100.0
39295;BME280;52361;52.100;5.248;2023-11-25T10:27:20;101168.0;;;9.53;100.0
39295;BME280;52361;52.100;5.248;2023-11-25T10:40:14;101169.0;;;9.88;100.0
39295;BME280;52361;52.100;5.248;2023-11-25T10:48:25;101157.0;;;10.01;100.0
39295;BME280;52361;52.100;5.248;2023-11-25T10:53:19;101182.0;;;10.39;100.0
39295;BME280;52361;52.100;5.248;2023-11-25T10:54:57;101180.0;;;10.22;100.0
39295;BME280;52361;52.100;5.248;2023-11-25T10:56:35;101183.0;;;10.41;100.0
39295;BME280;52361;52.100;5.248;2023-11-25T11:03:15;101185.0;;;10.14;100.0
39295;BME280;52361;52.100;5.248;2023-11-25T11:04:58;101182.0;;;10.01;100.0
39295;BME280;52361;52.100;5.248;2023-11-25T11:11:50;101176.0;;;9.66;100.0
39295;BME280;52361;52.100;5.248;2023-11-25T11:13:31;101177.0;;;9.53;100.0
39295;BME280;52361;52.100;5.248;2023-11-25T11:16:59;101169.0;;;9.41;100.0
39295;BME280;52361;52.100;5.248;2023-11-25T11:22:03;101171.0;;;9.28;100.0
39295;BME280;52361;52.100;5.248;2023-11-25T11:28:54;101169.0;;;9.39;100.0
39295;BME280;52361;52.100;5.248;2023-11-25T11:30:41;101163.0;;;9.44;100.0
39295;BME280;52361;52.100;5.248;2023-11-25T11:32:33;101158.0;;;9.64;100.0
39295;BME280;52361;52.100;5.248;2023-11-25T11:37:34;101165.0;;;9.99;100.0
39295;BME280;52361;52.100;5.248;2023-11-25T11:39:29;101163.0;;;10.06;100.0
39295;BME280;52361;52.100;5.248;2023-11-25T11:51:08;101148.0;;;10.25;100.0
39295;BME280;52361;52.100;5.248;2023-11-25T11:54:24;101141.0;;;10.03;100.0
39295;BME280;52361;52.100;5.248;2023-11-25T11:56:01;101145.0;;;10.03;100.0
39295;BME280;52361;52.100;5.248;2023-11-25T12:01:35;101148.0;;;9.91;100.0
39295;BME280;52361;52.100;5.248;2023-11-25T12:06:26;101142.0;;;10.07;100.0
39295;BME280;52361;52.100;5.248;2023-11-25T12:12:52;101138.0;;;9.98;100.0
39295;BME280;52361;52.100;5.248;2023-11-25T12:14:28;101133.0;;;10.08;100.0
39295;BME280;52361;52.100;5.248;2023-11-25T12:16:05;101132.0;;;10.0;100.0
39295;BME280;52361;52.100;5.248;2023-11-25T12:19:17;101132.0;;;10.09;100.0
39295;BME280;52361;52.100;5.248;2023-11-25T12:27:25;101133.0;;;10.69;100.0
39295;BME280;52361;52.100;5.248;2023-11-25T12:29:03;101130.0;;;10.61;100.0
39295;BME280;52361;52.100;5.248;2023-11-25T12:30:40;101128.0;;;10.71;100.0
39295;BME280;52361;52.100;5.248;2023-11-25T12:33:53;101130.0;;;10.75;100.0
39295;BME280;52361;52.100;5.248;2023-11-25T12:35:30;101137.0;;;10.82;100.0
39295;BME280;52361;52.100;5.248;2023-11-25T12:40:20;101138.0;;;10.7;100.0
39295;BME280;52361;52.100;5.248;2023-11-25T12:50:12;101145.0;;;10.36;100.0
39295;BME280;52361;52.100;5.248;2023-11-25T12:51:48;101147.0;;;10.23;100.0
39295;BME280;52361;52.100;5.248;2023-11-25T12:55:01;101155.0;;;10.21;100.0
39295;BME280;52361;52.100;5.248;2023-11-25T12:56:37;101151.0;;;10.14;100.0
39295;BME280;52361;52.100;5.248;2023-11-25T12:58:14;101155.0;;;10.22;100.0
39295;BME280;52361;52.100;5.248;2023-11-25T13:03:04;101164.0;;;10.47;100.0
39295;BME280;52361;52.100;5.248;2023-11-25T13:09:31;101168.0;;;10.91;100.0
39295;BME280;52361;52.100;5.248;2023-11-25T13:12:43;101168.0;;;10.59;100.0
39295;BME280;52361;52.100;5.248;2023-11-25T13:15:56;101167.0;;;10.5;100.0
39295;BME280;52361;52.100;5.248;2023-11-25T13:19:09;101168.0;;;10.44;100.0
39295;BME280;52361;52.100;5.248;2023-11-25T13:20:45;101158.0;;;10.41;100.0
39295;BME280;52361;52.100;5.248;2023-11-25T13:25:33;101163.0;;;10.51;100.0
39295;BME280;52361;52.100;5.248;2023-11-25T13:30:21;101156.0;;;10.21;100.0
39295;BME280;52361;52.100;5.248;2023-11-25T13:31:57;101161.0;;;10.13;100.0
39295;BME280;52361;52.100;5.248;2023-11-25T13:36:46;101155.0;;;10.41;100.0
39295;BME280;52361;52.100;5.248;2023-11-25T13:43:12;101153.0;;;10.78;100.0
39295;BME280;52361;52.100;5.248;2023-11-25T13:44:48;101151.0;;;10.8;100.0
39295;BME280;52361;52.100;5.248;2023-11-25T13:46:24;101147.0;;;10.61;100.0
39295;BME280;52361;52.100;5.248;2023-11-25T13:52:50;101155.0;;;10.43;100.0
39295;BME280;52361;52.100;5.248;2023-11-25T13:59:14;101156.0;;;9.72;100.0
39295;BME280;52361;52.100;5.248;2023-11-25T14:00:50;101153.0;;;9.71;100.0
39295;BME280;52361;52.100;5.248;2023-11-25T14:05:39;101148.0;;;9.69;100.0
39295;BME280;52361;52.100;5.248;2023-11-25T14:12:04;101160.0;;;9.57;100.0
39295;BME280;52361;52.100;5.248;2023-11-25T14:13:39;101156.0;;;9.5;100.0
39295;BME280;52361;52.100;5.248;2023-11-25T14:15:16;101155.0;;;9.36;100.0
39295;BME280;52361;52.100;5.248;2023-11-25T14:18:28;101155.0;;;9.41;100.0
39295;BME280;52361;52.100;5.248;2023-11-25T14:21:41;101147.0;;;9.48;100.0
39295;BME280;52361;52.100;5.248;2023-11-25T14:24:53;101159.0;;;9.4;100.0
39295;BME280;52361;52.100;5.248;2023-11-25T14:32:54;101178.0;;;9.53;100.0
39295;BME280;52361;52.100;5.248;2023-11-25T14:34:30;101184.0;;;9.26;100.0
39295;BME280;52361;52.100;5.248;2023-11-25T14:36:06;101188.0;;;9.47;100.0
39295;BME280;52361;52.100;5.248;2023-11-25T14:40:55;101195.0;;;9.57;100.0
39295;BME280;52361;52.100;5.248;2023-11-25T14:42:31;101195.0;;;9.42;100.0
39295;BME280;52361;52.100;5.248;2023-11-25T14:48:57;101157.0;;;9.14;100.0
39295;BME280;52361;52.100;5.248;2023-11-25T14:55:21;101170.0;;;9.08;100.0
39295;BME280;52361;52.100;5.248;2023-11-25T15:00:11;101175.0;;;8.93;100.0
39295;BME280;52361;52.100;5.248;2023-11-25T15:14:38;101192.0;;;8.55;100.0
39295;BME280;52361;52.100;5.248;2023-11-25T15:27:27;101191.0;;;8.28;100.0
39295;BME280;52361;52.100;5.248;2023-11-25T15:29:03;101191.0;;;8.23;100.0
39295;BME280;52361;52.100;5.248;2023-11-25T15:40:17;101202.0;;;8.2;100.0
39295;BME280;52361;52.100;5.248;2023-11-25T15:48:18;101205.0;;;8.36;100.0
39295;BME280;52361;52.100;5.248;2023-11-25T15:57:55;101209.0;;;8.31;100.0
39295;BME280;52361;52.100;5.248;2023-11-25T16:02:43;101208.0;;;8.34;100.0
39295;BME280;52361;52.100;5.248;2023-11-25T16:04:19;101212.0;;;8.31;100.0
39295;BME280;52361;52.100;5.248;2023-11-25T16:12:21;101209.0;;;8.31;100.0
39295;BME280;52361;52.100;5.248;2023-11-25T16:15:33;101211.0;;;8.25;100.0
39295;BME280;52361;52.100;5.248;2023-11-25T16:29:59;101211.0;;;8.1;100.0
39295;BME280;52361;52.100;5.248;2023-11-25T16:37:59;101222.0;;;8.06;100.0
39295;BME280;52361;52.100;5.248;2023-11-25T16:39:36;101228.0;;;8.02;100.0
39295;BME280;52361;52.100;5.248;2023-11-25T16:49:13;101237.0;;;7.97;100.0
39295;BME280;52361;52.100;5.248;2023-11-25T16:55:39;101242.0;;;7.97;100.0
39295;BME280;52361;52.100;5.248;2023-11-25T16:57:16;101243.0;;;8.06;100.0
39295;BME280;52361;52.100;5.248;2023-11-25T16:58:52;101247.0;;;8.08;100.0
39295;BME280;52361;52.100;5.248;2023-11-25T17:03:41;101247.0;;;8.03;100.0
39295;BME280;52361;52.100;5.248;2023-11-25T17:11:43;101253.0;;;7.84;100.0
39295;BME280;52361;52.100;5.248;2023-11-25T17:19:44;101268.0;;;8.06;100.0
39295;BME280;52361;52.100;5.248;2023-11-25T17:21:20;101275.0;;;8.06;100.0
39295;BME280;52361;52.100;5.248;2023-11-25T17:37:21;101283.0;;;7.88;100.0
39295;BME280;52361;52.100;5.248;2023-11-25T17:40:33;101293.0;;;7.75;100.0
39295;BME280;52361;52.100;5.248;2023-11-25T17:45:21;101298.0;;;7.69;100.0
39295;BME280;52361;52.100;5.248;2023-11-25T17:46:58;101298.0;;;7.71;100.0
39295;BME280;52361;52.100;5.248;2023-11-25T17:53:22;101305.0;;;7.4;100.0
39295;BME280;52361;52.100;5.248;2023-11-25T17:54:58;101305.0;;;7.4;100.0
39295;BME280;52361;52.100;5.248;2023-11-25T17:58:10;101309.0;;;7.36;100.0
39295;BME280;52361;52.100;5.248;2023-11-25T17:59:46;101305.0;;;7.31;100.0
39295;BME280;52361;52.100;5.248;2023-11-25T18:01:22;101308.0;;;7.21;100.0
39295;BME280;52361;52.100;5.248;2023-11-25T18:04:35;101314.0;;;7.23;100.0
39295;BME280;52361;52.100;5.248;2023-11-25T18:06:11;101319.0;;;7.12;100.0
39295;BME280;52361;52.100;5.248;2023-11-25T18:10:59;101324.0;;;7.17;100.0
39295;BME280;52361;52.100;5.248;2023-11-25T18:12:35;101322.0;;;7.16;100.0
39295;BME280;52361;52.100;5.248;2023-11-25T18:14:11;101322.0;;;7.13;100.0
39295;BME280;52361;52.100;5.248;2023-11-25T18:15:47;101326.0;;;7.16;100.0
39295;BME280;52361;52.100;5.248;2023-11-25T18:18:59;101330.0;;;7.14;100.0
39295;BME280;52361;52.100;5.248;2023-11-25T18:20:36;101333.0;;;7.08;100.0
39295;BME280;52361;52.100;5.248;2023-11-25T18:22:12;101333.0;;;7.1;100.0
39295;BME280;52361;52.100;5.248;2023-11-25T18:25:24;101337.0;;;7.12;100.0
39295;BME280;52361;52.100;5.248;2023-11-25T18:27:00;101338.0;;;7.08;100.0
39295;BME280;52361;52.100;5.248;2023-11-25T18:28:36;101340.0;;;7.09;100.0
39295;BME280;52361;52.100;5.248;2023-11-25T18:31:48;101343.0;;;6.95;100.0
39295;BME280;52361;52.100;5.248;2023-11-25T18:33:24;101344.0;;;6.89;100.0
39295;BME280;52361;52.100;5.248;2023-11-25T18:35:00;101343.0;;;6.84;100.0
39295;BME280;52361;52.100;5.248;2023-11-25T18:36:37;101340.0;;;6.78;100.0
39295;BME280;52361;52.100;5.248;2023-11-25T18:39:49;101347.0;;;6.76;100.0
39295;BME280;52361;52.100;5.248;2023-11-25T18:43:01;101349.0;;;6.62;100.0
39295;BME280;52361;52.100;5.248;2023-11-25T18:46:13;101352.0;;;6.59;100.0
39295;BME280;52361;52.100;5.248;2023-11-25T18:47:49;101353.0;;;6.47;100.0
39295;BME280;52361;52.100;5.248;2023-11-25T18:52:39;101358.0;;;6.32;100.0
39295;BME280;52361;52.100;5.248;2023-11-25T18:54:15;101364.0;;;6.22;100.0
39295;BME280;52361;52.100;5.248;2023-11-25T18:55:51;101366.0;;;6.14;100.0
39295;BME280;52361;52.100;5.248;2023-11-25T18:59:03;101368.0;;;6.09;100.0
39295;BME280;52361;52.100;5.248;2023-11-25T19:00:40;101366.0;;;6.02;100.0
39295;BME280;52361;52.100;5.248;2023-11-25T19:02:17;101365.0;;;5.91;100.0
39295;BME280;52361;52.100;5.248;2023-11-25T19:03:52;101365.0;;;5.82;100.0
39295;BME280;52361;52.100;5.248;2023-11-25T19:07:04;101364.0;;;5.72;100.0
39295;BME280;52361;52.100;5.248;2023-11-25T19:08:41;101369.0;;;5.67;100.0
39295;BME280;52361;52.100;5.248;2023-11-25T19:10:17;101370.0;;;5.59;100.0
39295;BME280;52361;52.100;5.248;2023-11-25T19:13:29;101370.0;;;5.48;100.0
39295;BME280;52361;52.100;5.248;2023-11-25T19:15:05;101370.0;;;5.38;100.0
39295;BME280;52361;52.100;5.248;2023-11-25T19:16:42;101373.0;;;5.31;100.0
39295;BME280;52361;52.100;5.248;2023-11-25T19:19:54;101383.0;;;5.27;100.0
39295;BME280;52361;52.100;5.248;2023-11-25T19:21:30;101381.0;;;5.19;100.0
39295;BME280;52361;52.100;5.248;2023-11-25T19:23:07;101384.0;;;5.19;100.0
39295;BME280;52361;52.100;5.248;2023-11-25T19:26:19;101380.0;;;5.16;100.0
39295;BME280;52361;52.100;5.248;2023-11-25T19:27:55;101376.0;;;5.11;100.0
39295;BME280;52361;52.100;5.248;2023-11-25T19:31:07;101383.0;;;4.99;100.0
39295;BME280;52361;52.100;5.248;2023-11-25T19:34:19;101384.0;;;4.96;100.0
39295;BME280;52361;52.100;5.248;2023-11-25T19:35:55;101391.0;;;4.93;100.0
39295;BME280;52361;52.100;5.248;2023-11-25T19:37:31;101391.0;;;4.82;100.0
39295;BME280;52361;52.100;5.248;2023-11-25T19:40:44;101390.0;;;4.76;100.0
39295;BME280;52361;52.100;5.248;2023-11-25T19:42:20;101390.0;;;4.72;100.0
39295;BME280;52361;52.100;5.248;2023-11-25T19:43:56;101393.0;;;4.72;100.0
39295;BME280;52361;52.100;5.248;2023-11-25T19:47:09;101394.0;;;4.68;100.0
39295;BME280;52361;52.100;5.248;2023-11-25T19:48:45;101394.0;;;4.63;100.0
39295;BME280;52361;52.100;5.248;2023-11-25T19:50:21;101398.0;;;4.64;100.0
39295;BME280;52361;52.100;5.248;2023-11-25T19:51:57;101399.0;;;4.63;100.0
39295;BME280;52361;52.100;5.248;2023-11-25T19:55:10;101401.0;;;4.66;100.0
39295;BME280;52361;52.100;5.248;2023-11-25T19:56:46;101405.0;;;4.62;100.0
39295;BME280;52361;52.100;5.248;2023-11-25T19:58:22;101410.0;;;4.63;100.0
39295;BME280;52361;52.100;5.248;2023-11-25T20:01:34;101416.0;;;4.7;100.0
39295;BME280;52361;52.100;5.248;2023-11-25T20:03:10;101418.0;;;4.74;100.0
39295;BME280;52361;52.100;5.248;2023-11-25T20:04:46;101414.0;;;4.74;100.0
39295;BME280;52361;52.100;5.248;2023-11-25T20:07:58;101419.0;;;4.74;100.0
39295;BME280;52361;52.100;5.248;2023-11-25T20:09:34;101423.0;;;4.61;100.0
39295;BME280;52361;52.100;5.248;2023-11-25T20:11:11;101423.0;;;4.54;100.0
39295;BME280;52361;52.100;5.248;2023-11-25T20:14:23;101417.0;;;4.53;100.0
39295;BME280;52361;52.100;5.248;2023-11-25T20:15:59;101415.0;;;4.39;100.0
39295;BME280;52361;52.100;5.248;2023-11-25T20:17:35;101414.0;;;4.49;100.0
39295;BME280;52361;52.100;5.248;2023-11-25T20:19:11;101418.0;;;4.57;100.0
39295;BME280;52361;52.100;5.248;2023-11-25T20:22:23;101419.0;;;4.59;100.0
39295;BME280;52361;52.100;5.248;2023-11-25T20:23:59;101420.0;;;4.59;100.0
39295;BME280;52361;52.100;5.248;2023-11-25T20:25:36;101418.0;;;4.62;100.0
39295;BME280;52361;52.100;5.248;2023-11-25T20:28:48;101418.0;;;4.54;100.0
39295;BME280;52361;52.100;5.248;2023-11-25T20:30:24;101416.0;;;4.57;100.0
39295;BME280;52361;52.100;5.248;2023-11-25T20:32:00;101418.0;;;4.53;100.0
39295;BME280;52361;52.100;5.248;2023-11-25T20:35:12;101417.0;;;4.57;100.0
39295;BME280;52361;52.100;5.248;2023-11-25T20:36:48;101410.0;;;4.49;100.0
39295;BME280;52361;52.100;5.248;2023-11-25T20:38:25;101409.0;;;4.41;100.0
39295;BME280;52361;52.100;5.248;2023-11-25T20:40:02;101411.0;;;4.38;100.0
39295;BME280;52361;52.100;5.248;2023-11-25T20:43:15;101413.0;;;4.34;100.0
39295;BME280;52361;52.100;5.248;2023-11-25T20:44:52;101417.0;;;4.29;100.0
39295;BME280;52361;52.100;5.248;2023-11-25T20:46:28;101411.0;;;4.2;100.0
39295;BME280;52361;52.100;5.248;2023-11-25T20:49:41;101411.0;;;4.07;100.0
39295;BME280;52361;52.100;5.248;2023-11-25T20:51:19;101407.0;;;4.07;100.0
39295;BME280;52361;52.100;5.248;2023-11-25T20:52:56;101408.0;;;4.07;100.0
39295;BME280;52361;52.100;5.248;2023-11-25T20:56:09;101415.0;;;4.05;100.0
39295;BME280;52361;52.100;5.248;2023-11-25T20:57:45;101418.0;;;4.0;100.0
39295;BME280;52361;52.100;5.248;2023-11-25T20:59:22;101422.0;;;4.01;100.0
39295;BME280;52361;52.100;5.248;2023-11-25T21:01:00;101424.0;;;4.01;100.0
39295;BME280;52361;52.100;5.248;2023-11-25T21:04:14;101430.0;;;3.99;100.0
39295;BME280;52361;52.100;5.248;2023-11-25T21:05:50;101428.0;;;3.96;100.0
39295;BME280;52361;52.100;5.248;2023-11-25T21:07:26;101430.0;;;3.91;100.0
39295;BME280;52361;52.100;5.248;2023-11-25T21:10:42;101430.0;;;3.92;100.0
39295;BME280;52361;52.100;5.248;2023-11-25T21:12:19;101433.0;;;3.87;100.0
39295;BME280;52361;52.100;5.248;2023-11-25T21:13:55;101432.0;;;3.83;100.0
39295;BME280;52361;52.100;5.248;2023-11-25T21:17:08;101428.0;;;3.76;100.0
39295;BME280;52361;52.100;5.248;2023-11-25T21:18:45;101425.0;;;3.76;100.0
39295;BME280;52361;52.100;5.248;2023-11-25T21:20:21;101424.0;;;3.72;100.0
39295;BME280;52361;52.100;5.248;2023-11-25T21:21:57;101427.0;;;3.67;100.0
39295;BME280;52361;52.100;5.248;2023-11-25T21:25:09;101430.0;;;3.63;100.0